• Join FlightAware (Why Join?)
  • Login
  • US Flag 
12:56AM EDT


 

Airport Tracker/Info


-or-


 

Live Flight TrackerFlight Track Log ✈ HAL138 ✈ 02-May-2012 ✈ PHNL - PHKO / KOA

Flight Track Log - Related Links

Times and Time Zones

All times are in EDT time to prevent confusion due to time zone crossing. See the HAL138 flight status page for this flight to view local times or setup timezone preferences in your user account.

Time Position Orientation Groundspeed Altitude Reporting Facility
EDT Latitude Longitude Course Direction KTS MPH feet Rate Location/Type
05:09PM 21.3098 -157.9047 146° Southeast  Level FlightAware Approximate
05:10PM 21.2595 -157.8446 191° South  Level FlightAware Approximate
05:11PM 21.2333 -157.8500 118° Southeast 240 276 2,900  Level Honolulu Center
05:12PM 21.2000 -157.7833 113° Southeast 280 322 5,000 2,280 Climbing Honolulu Center
05:13PM 21.1667 -157.7000 113° Southeast 300 345 7,500 2,520 Climbing Honolulu Center
05:14PM 21.1333 -157.6167 123° Southeast 310 357 10,100 2,040 Climbing Honolulu Center
05:15PM 21.0833 -157.5333 131° Southeast 340 391 11,600 1,860 Climbing Honolulu Center
05:16PM 21.0167 -157.4500 131° Southeast 350 403 13,900 2,160 Climbing Honolulu Center
05:17PM 20.9500 -157.3667 131° Southeast 360 414 16,000 1,800 Climbing Honolulu Center
05:18PM 20.8833 -157.2833 123° Southeast 380 437 17,600 1,440 Climbing Honolulu Center
05:19PM 20.8333 -157.2000 137° Southeast 400 460 19,000 660 Climbing Honolulu Center
05:20PM 20.7500 -157.1167 125° Southeast 400 460 19,000  Level Honolulu Center
05:21PM 20.6833 -157.0167 125° Southeast 390 449 19,000  Level Honolulu Center
05:22PM 20.6167 -156.9167 137° Southeast 390 449 19,000  Level Honolulu Center
05:23PM 20.5333 -156.8333 125° Southeast 390 449 19,000  Level Honolulu Center
05:24PM 20.4667 -156.7333 130° Southeast 400 460 19,000  Level Honolulu Center
05:25PM 20.4000 -156.6500 110° East 390 449 19,000 -300 Level Honolulu Center
05:26PM 20.3667 -156.5500 99° East 370 426 18,400 -900 Descending Honolulu Center
05:27PM 20.3500 -156.4333 100° East 350 403 17,300 -1,320 Descending Honolulu Center
05:28PM 20.3333 -156.3333 102° East 350 403 15,800 -2,040 Descending Honolulu Center
05:29PM 20.3167 -156.2500 110° East 320 368 13,200 -2,400 Descending Honolulu Center
05:30PM 20.2833 -156.1500 102° East 310 357 11,000 -1,860 Descending Honolulu Center
05:31PM 20.2667 -156.0667 137° Southeast 280 322 9,500 -1,620 Descending Honolulu Center
05:32PM 20.2167 -156.0167 167° South 270 311 7,800 -1,620 Descending Honolulu Center
05:33PM 20.1500 -156.0000 191° South 270 311 6,300 -1,500 Descending Honolulu Center
05:34PM 20.0667 -156.0167 180° South 250 288 4,900 -1,020 Descending Honolulu Center
05:35PM 20.0000 -156.0167 180° South 250 288 4,300 -660 Descending Honolulu Center
05:36PM 19.9333 -156.0167 180° South 250 288 3,600 -720 Descending Honolulu Center